aviador You're here:

KAHN Decoded Metar

ATHENS in GA, USA
Report Time2018-05-23 16:09:00
UTC Time2018-05-23 16:43:40
Flight Rules ifr IFR
Wind090° at 04 kt
W.Decomp.*RWY 09: 4.0 kt HW 0.2 kt RCW
RWY 02: 1.2 kt HW 3.8 kt RCW
W.Rank090° ranks 6
Current wind is below 090° avg. (5.5)
Visibility9999 m
Phenomena:N/A
Clouds:Broken 005 Hf
Ceiling500 ft
Temp22°C (ISA +9)
Dew Point22°C (100% RH)
QNH1020 hPa
Density Alt1,919 ft
Elevation801 ft
Report Wrong Elevation
Raw Report
KAHN 231609Z 09004KT 9SM BKN005 22/22 A3012 RMK AO2 RAE05 CIG
004V008 P0000 T02220222=

Extra information for KAHN:More info

Metar Taf Metar & Taf Last 4 Metars F.Rules Stats Wind Profile Meteogram Temp Stats Airport Information Weather charts Add Link Nearby VenuesMetar ALERT Operation Metar Decoded Social comments

AIRNAV info for KAHN